sensor_id;sensor_type;location;lat;lon;timestamp;temperature;humidity
29363;DHT22;16349;53.672;10.014;2022-12-18T00:02:19;-4.70;99.90
29363;DHT22;16349;53.672;10.014;2022-12-18T00:04:47;-4.70;99.90
29363;DHT22;16349;53.672;10.014;2022-12-18T00:07:14;-4.70;99.90
29363;DHT22;16349;53.672;10.014;2022-12-18T00:09:41;-4.70;99.90
29363;DHT22;16349;53.672;10.014;2022-12-18T00:12:08;-4.70;99.90
29363;DHT22;16349;53.672;10.014;2022-12-18T00:14:35;-4.80;99.90
29363;DHT22;16349;53.672;10.014;2022-12-18T00:17:02;-4.80;99.90
29363;DHT22;16349;53.672;10.014;2022-12-18T00:19:30;-4.80;99.90
29363;DHT22;16349;53.672;10.014;2022-12-18T00:21:57;-4.70;99.90
29363;DHT22;16349;53.672;10.014;2022-12-18T00:24:24;-4.70;99.90
29363;DHT22;16349;53.672;10.014;2022-12-18T00:26:51;-4.80;99.90
29363;DHT22;16349;53.672;10.014;2022-12-18T00:29:19;-4.80;99.90
29363;DHT22;16349;53.672;10.014;2022-12-18T00:31:46;-4.80;99.90
29363;DHT22;16349;53.672;10.014;2022-12-18T00:34:13;-4.80;99.90
29363;DHT22;16349;53.672;10.014;2022-12-18T00:36:41;-4.80;99.90
29363;DHT22;16349;53.672;10.014;2022-12-18T00:39:10;-4.80;99.90
29363;DHT22;16349;53.672;10.014;2022-12-18T00:41:37;-4.70;99.90
29363;DHT22;16349;53.672;10.014;2022-12-18T00:44:22;-4.80;99.90
29363;DHT22;16349;53.672;10.014;2022-12-18T00:46:50;-4.80;99.90
29363;DHT22;16349;53.672;10.014;2022-12-18T00:49:18;-4.80;99.90
29363;DHT22;16349;53.672;10.014;2022-12-18T00:51:46;-4.80;99.90
29363;DHT22;16349;53.672;10.014;2022-12-18T00:54:14;-4.80;99.90
29363;DHT22;16349;53.672;10.014;2022-12-18T00:56:41;-4.80;99.90
29363;DHT22;16349;53.672;10.014;2022-12-18T00:59:08;-4.80;99.90
29363;DHT22;16349;53.672;10.014;2022-12-18T01:01:38;-4.90;99.90
29363;DHT22;16349;53.672;10.014;2022-12-18T01:04:05;-4.90;99.90
29363;DHT22;16349;53.672;10.014;2022-12-18T01:06:32;-4.90;99.90
29363;DHT22;16349;53.672;10.014;2022-12-18T01:09:00;-4.90;99.90
29363;DHT22;16349;53.672;10.014;2022-12-18T01:11:27;-4.90;99.90
29363;DHT22;16349;53.672;10.014;2022-12-18T01:13:54;-4.90;99.90
29363;DHT22;16349;53.672;10.014;2022-12-18T01:16:22;-4.90;99.90
29363;DHT22;16349;53.672;10.014;2022-12-18T01:18:51;-4.90;99.90
29363;DHT22;16349;53.672;10.014;2022-12-18T01:21:20;-4.90;99.90
29363;DHT22;16349;53.672;10.014;2022-12-18T01:23:51;-5.00;99.90
29363;DHT22;16349;53.672;10.014;2022-12-18T01:26:20;-5.10;99.90
29363;DHT22;16349;53.672;10.014;2022-12-18T01:28:47;-5.10;99.90
29363;DHT22;16349;53.672;10.014;2022-12-18T01:31:16;-5.10;99.90
29363;DHT22;16349;53.672;10.014;2022-12-18T01:33:44;-5.10;99.90
29363;DHT22;16349;53.672;10.014;2022-12-18T01:36:20;-5.10;99.90
29363;DHT22;16349;53.672;10.014;2022-12-18T01:38:48;-5.10;99.90
29363;DHT22;16349;53.672;10.014;2022-12-18T01:41:17;-5.10;99.90
29363;DHT22;16349;53.672;10.014;2022-12-18T01:43:48;-5.10;99.90
29363;DHT22;16349;53.672;10.014;2022-12-18T01:46:16;-5.00;99.90
29363;DHT22;16349;53.672;10.014;2022-12-18T01:48:45;-5.10;99.90
29363;DHT22;16349;53.672;10.014;2022-12-18T01:51:13;-5.10;99.90
29363;DHT22;16349;53.672;10.014;2022-12-18T01:53:42;-5.00;99.90
29363;DHT22;16349;53.672;10.014;2022-12-18T01:56:14;-5.00;99.90
29363;DHT22;16349;53.672;10.014;2022-12-18T01:58:56;-5.00;99.90
29363;DHT22;16349;53.672;10.014;2022-12-18T02:01:26;-5.00;99.90
29363;DHT22;16349;53.672;10.014;2022-12-18T02:03:53;-5.00;99.90
29363;DHT22;16349;53.672;10.014;2022-12-18T02:06:26;-5.00;99.90
29363;DHT22;16349;53.672;10.014;2022-12-18T02:09:03;-5.00;99.90
29363;DHT22;16349;53.672;10.014;2022-12-18T02:11:39;-5.10;99.90
29363;DHT22;16349;53.672;10.014;2022-12-18T02:14:17;-5.10;99.90
29363;DHT22;16349;53.672;10.014;2022-12-18T02:16:52;-5.10;99.90
29363;DHT22;16349;53.672;10.014;2022-12-18T02:19:36;-5.10;99.90
29363;DHT22;16349;53.672;10.014;2022-12-18T02:22:16;-5.10;99.90
29363;DHT22;16349;53.672;10.014;2022-12-18T02:25:00;-5.20;99.90
29363;DHT22;16349;53.672;10.014;2022-12-18T02:27:31;-5.10;99.90
29363;DHT22;16349;53.672;10.014;2022-12-18T02:30:00;-5.10;99.90
29363;DHT22;16349;53.672;10.014;2022-12-18T02:32:30;-5.10;99.90
29363;DHT22;16349;53.672;10.014;2022-12-18T02:34:59;-5.10;99.90
29363;DHT22;16349;53.672;10.014;2022-12-18T02:37:29;-5.20;99.90
29363;DHT22;16349;53.672;10.014;2022-12-18T02:40:01;-5.20;99.90
29363;DHT22;16349;53.672;10.014;2022-12-18T02:42:32;-5.20;99.90
29363;DHT22;16349;53.672;10.014;2022-12-18T02:45:00;-5.20;99.90
29363;DHT22;16349;53.672;10.014;2022-12-18T02:47:31;-5.20;99.90
29363;DHT22;16349;53.672;10.014;2022-12-18T02:50:05;-5.30;99.90
29363;DHT22;16349;53.672;10.014;2022-12-18T02:52:41;-5.30;99.90
29363;DHT22;16349;53.672;10.014;2022-12-18T02:55:19;-5.30;99.90
29363;DHT22;16349;53.672;10.014;2022-12-18T02:57:59;-5.40;99.90
29363;DHT22;16349;53.672;10.014;2022-12-18T03:00:39;-5.40;99.90
29363;DHT22;16349;53.672;10.014;2022-12-18T03:03:12;-5.40;99.90
29363;DHT22;16349;53.672;10.014;2022-12-18T03:05:45;-5.40;99.90
29363;DHT22;16349;53.672;10.014;2022-12-18T03:08:20;-5.50;99.90
29363;DHT22;16349;53.672;10.014;2022-12-18T03:10:54;-5.50;99.90
29363;DHT22;16349;53.672;10.014;2022-12-18T03:13:27;-5.50;99.90
29363;DHT22;16349;53.672;10.014;2022-12-18T03:15:59;-5.50;99.90
29363;DHT22;16349;53.672;10.014;2022-12-18T03:18:30;-5.50;99.90
29363;DHT22;16349;53.672;10.014;2022-12-18T03:20:59;-5.50;99.90
29363;DHT22;16349;53.672;10.014;2022-12-18T03:23:29;-5.50;99.90
29363;DHT22;16349;53.672;10.014;2022-12-18T03:26:01;-5.50;99.90
29363;DHT22;16349;53.672;10.014;2022-12-18T03:28:32;-5.50;99.90
29363;DHT22;16349;53.672;10.014;2022-12-18T03:31:04;-5.50;99.90
29363;DHT22;16349;53.672;10.014;2022-12-18T03:33:35;-5.50;99.90
29363;DHT22;16349;53.672;10.014;2022-12-18T03:36:05;-5.50;99.90
29363;DHT22;16349;53.672;10.014;2022-12-18T03:38:32;-5.50;99.90
29363;DHT22;16349;53.672;10.014;2022-12-18T03:41:03;-5.50;99.90
29363;DHT22;16349;53.672;10.014;2022-12-18T03:43:49;-5.50;99.90
29363;DHT22;16349;53.672;10.014;2022-12-18T03:46:25;-5.50;99.90
29363;DHT22;16349;53.672;10.014;2022-12-18T03:48:59;-5.50;99.90
29363;DHT22;16349;53.672;10.014;2022-12-18T03:51:36;-5.60;99.90
29363;DHT22;16349;53.672;10.014;2022-12-18T03:54:05;-5.60;99.90
29363;DHT22;16349;53.672;10.014;2022-12-18T03:56:41;-5.60;99.90
29363;DHT22;16349;53.672;10.014;2022-12-18T03:59:12;-5.60;99.90
29363;DHT22;16349;53.672;10.014;2022-12-18T04:02:03;-5.60;99.90
29363;DHT22;16349;53.672;10.014;2022-12-18T04:04:32;-5.60;99.90
29363;DHT22;16349;53.672;10.014;2022-12-18T04:07:02;-5.60;99.90
29363;DHT22;16349;53.672;10.014;2022-12-18T04:09:34;-5.60;99.90
29363;DHT22;16349;53.672;10.014;2022-12-18T04:12:01;-5.60;99.90
29363;DHT22;16349;53.672;10.014;2022-12-18T04:14:30;-5.70;99.90
29363;DHT22;16349;53.672;10.014;2022-12-18T04:17:07;-5.70;99.90
29363;DHT22;16349;53.672;10.014;2022-12-18T04:19:34;-5.70;99.90
29363;DHT22;16349;53.672;10.014;2022-12-18T04:22:02;-5.70;99.90
29363;DHT22;16349;53.672;10.014;2022-12-18T04:24:34;-5.70;99.90
29363;DHT22;16349;53.672;10.014;2022-12-18T04:27:09;-5.70;99.90
29363;DHT22;16349;53.672;10.014;2022-12-18T04:29:43;-5.70;99.90
29363;DHT22;16349;53.672;10.014;2022-12-18T04:32:10;-5.70;99.90
29363;DHT22;16349;53.672;10.014;2022-12-18T04:34:37;-5.70;99.90
29363;DHT22;16349;53.672;10.014;2022-12-18T04:37:04;-5.70;99.90
29363;DHT22;16349;53.672;10.014;2022-12-18T04:39:31;-5.70;99.90
29363;DHT22;16349;53.672;10.014;2022-12-18T04:42:04;-5.70;99.90
29363;DHT22;16349;53.672;10.014;2022-12-18T04:44:31;-5.70;99.90
29363;DHT22;16349;53.672;10.014;2022-12-18T04:46:59;-5.70;99.90
29363;DHT22;16349;53.672;10.014;2022-12-18T04:49:26;-5.80;99.90
29363;DHT22;16349;53.672;10.014;2022-12-18T04:51:53;-5.80;99.90
29363;DHT22;16349;53.672;10.014;2022-12-18T04:54:20;-5.80;99.90
29363;DHT22;16349;53.672;10.014;2022-12-18T04:56:47;-5.70;99.90
29363;DHT22;16349;53.672;10.014;2022-12-18T04:59:14;-5.80;99.90
29363;DHT22;16349;53.672;10.014;2022-12-18T05:01:41;-5.80;99.90
29363;DHT22;16349;53.672;10.014;2022-12-18T05:04:10;-5.80;99.90
29363;DHT22;16349;53.672;10.014;2022-12-18T05:06:37;-5.80;99.90
29363;DHT22;16349;53.672;10.014;2022-12-18T05:09:04;-5.80;99.90
29363;DHT22;16349;53.672;10.014;2022-12-18T05:11:31;-5.90;99.90
29363;DHT22;16349;53.672;10.014;2022-12-18T05:13:58;-5.90;99.90
29363;DHT22;16349;53.672;10.014;2022-12-18T05:16:25;-5.80;99.90
29363;DHT22;16349;53.672;10.014;2022-12-18T05:18:52;-5.90;99.90
29363;DHT22;16349;53.672;10.014;2022-12-18T05:21:19;-5.90;99.90
29363;DHT22;16349;53.672;10.014;2022-12-18T05:23:46;-5.90;99.90
29363;DHT22;16349;53.672;10.014;2022-12-18T05:26:16;-5.90;99.90
29363;DHT22;16349;53.672;10.014;2022-12-18T05:28:43;-5.90;99.90
29363;DHT22;16349;53.672;10.014;2022-12-18T05:31:10;-5.90;99.90
29363;DHT22;16349;53.672;10.014;2022-12-18T05:33:37;-5.90;99.90
29363;DHT22;16349;53.672;10.014;2022-12-18T05:36:07;-5.90;99.90
29363;DHT22;16349;53.672;10.014;2022-12-18T05:38:36;-5.90;99.90
29363;DHT22;16349;53.672;10.014;2022-12-18T05:41:04;-5.90;99.90
29363;DHT22;16349;53.672;10.014;2022-12-18T05:43:34;-5.90;99.90
29363;DHT22;16349;53.672;10.014;2022-12-18T05:46:04;-5.90;99.90
29363;DHT22;16349;53.672;10.014;2022-12-18T05:48:31;-6.00;99.90
29363;DHT22;16349;53.672;10.014;2022-12-18T05:51:04;-6.00;99.90
29363;DHT22;16349;53.672;10.014;2022-12-18T05:53:31;-6.00;99.90
29363;DHT22;16349;53.672;10.014;2022-12-18T05:56:02;-6.00;99.90
29363;DHT22;16349;53.672;10.014;2022-12-18T05:58:30;-6.00;99.90
29363;DHT22;16349;53.672;10.014;2022-12-18T06:00:58;-6.00;99.90
29363;DHT22;16349;53.672;10.014;2022-12-18T06:03:32;-6.00;99.90
29363;DHT22;16349;53.672;10.014;2022-12-18T06:05:59;-6.00;99.90
29363;DHT22;16349;53.672;10.014;2022-12-18T06:08:25;-6.00;99.90
29363;DHT22;16349;53.672;10.014;2022-12-18T06:10:53;-6.00;99.90
29363;DHT22;16349;53.672;10.014;2022-12-18T06:13:21;-6.00;99.90
29363;DHT22;16349;53.672;10.014;2022-12-18T06:15:48;-6.10;99.90
29363;DHT22;16349;53.672;10.014;2022-12-18T06:18:15;-6.10;99.90
29363;DHT22;16349;53.672;10.014;2022-12-18T06:20:42;-6.10;99.90
29363;DHT22;16349;53.672;10.014;2022-12-18T06:23:09;-6.10;99.90
29363;DHT22;16349;53.672;10.014;2022-12-18T06:25:37;-6.10;99.90
29363;DHT22;16349;53.672;10.014;2022-12-18T06:28:04;-6.10;99.90
29363;DHT22;16349;53.672;10.014;2022-12-18T06:30:32;-6.10;99.90
29363;DHT22;16349;53.672;10.014;2022-12-18T06:32:59;-6.10;99.90
29363;DHT22;16349;53.672;10.014;2022-12-18T06:35:26;-6.10;99.90
29363;DHT22;16349;53.672;10.014;2022-12-18T06:37:53;-6.10;99.90
29363;DHT22;16349;53.672;10.014;2022-12-18T06:40:20;-6.10;99.90
29363;DHT22;16349;53.672;10.014;2022-12-18T06:42:47;-6.10;99.90
29363;DHT22;16349;53.672;10.014;2022-12-18T06:45:16;-6.10;99.90
29363;DHT22;16349;53.672;10.014;2022-12-18T06:47:45;-6.10;99.90
29363;DHT22;16349;53.672;10.014;2022-12-18T06:50:12;-6.10;99.90
29363;DHT22;16349;53.672;10.014;2022-12-18T06:52:38;-6.10;99.90
29363;DHT22;16349;53.672;10.014;2022-12-18T06:55:09;-6.10;99.90
29363;DHT22;16349;53.672;10.014;2022-12-18T06:57:37;-6.10;99.90
29363;DHT22;16349;53.672;10.014;2022-12-18T07:00:06;-6.10;99.90
29363;DHT22;16349;53.672;10.014;2022-12-18T07:02:33;-6.00;99.90
29363;DHT22;16349;53.672;10.014;2022-12-18T07:05:01;-6.00;99.90
29363;DHT22;16349;53.672;10.014;2022-12-18T07:07:28;-6.00;99.90
29363;DHT22;16349;53.672;10.014;2022-12-18T07:09:55;-6.00;99.90
29363;DHT22;16349;53.672;10.014;2022-12-18T07:12:22;-6.00;99.90
29363;DHT22;16349;53.672;10.014;2022-12-18T07:14:48;-6.00;99.90
29363;DHT22;16349;53.672;10.014;2022-12-18T07:17:15;-6.00;99.90
29363;DHT22;16349;53.672;10.014;2022-12-18T07:19:42;-6.00;99.90
29363;DHT22;16349;53.672;10.014;2022-12-18T07:22:10;-6.00;99.90
29363;DHT22;16349;53.672;10.014;2022-12-18T07:24:37;-6.00;99.90
29363;DHT22;16349;53.672;10.014;2022-12-18T07:27:04;-6.00;99.90
29363;DHT22;16349;53.672;10.014;2022-12-18T07:29:31;-5.90;99.90
29363;DHT22;16349;53.672;10.014;2022-12-18T07:31:58;-6.00;99.90
29363;DHT22;16349;53.672;10.014;2022-12-18T07:34:25;-6.00;99.90
29363;DHT22;16349;53.672;10.014;2022-12-18T07:36:52;-6.00;99.90
29363;DHT22;16349;53.672;10.014;2022-12-18T07:39:20;-5.90;99.90
29363;DHT22;16349;53.672;10.014;2022-12-18T07:41:47;-5.90;99.90
29363;DHT22;16349;53.672;10.014;2022-12-18T07:44:34;-5.90;99.90
29363;DHT22;16349;53.672;10.014;2022-12-18T07:47:01;-5.90;99.90
29363;DHT22;16349;53.672;10.014;2022-12-18T07:49:28;-5.90;99.90
29363;DHT22;16349;53.672;10.014;2022-12-18T07:51:55;-5.80;99.90
29363;DHT22;16349;53.672;10.014;2022-12-18T07:54:23;-5.80;99.90
29363;DHT22;16349;53.672;10.014;2022-12-18T07:56:51;-5.80;99.90
29363;DHT22;16349;53.672;10.014;2022-12-18T07:59:18;-5.80;99.90
29363;DHT22;16349;53.672;10.014;2022-12-18T08:01:45;-5.70;99.90
29363;DHT22;16349;53.672;10.014;2022-12-18T08:04:12;-5.70;99.90
29363;DHT22;16349;53.672;10.014;2022-12-18T08:06:39;-5.70;99.90
29363;DHT22;16349;53.672;10.014;2022-12-18T08:09:06;-5.60;99.90
29363;DHT22;16349;53.672;10.014;2022-12-18T08:11:35;-5.60;99.90
29363;DHT22;16349;53.672;10.014;2022-12-18T08:14:02;-5.60;99.90
29363;DHT22;16349;53.672;10.014;2022-12-18T08:16:29;-5.50;99.90
29363;DHT22;16349;53.672;10.014;2022-12-18T08:18:57;-5.50;99.90
29363;DHT22;16349;53.672;10.014;2022-12-18T08:21:25;-5.50;99.90
29363;DHT22;16349;53.672;10.014;2022-12-18T08:23:54;-5.40;99.90
29363;DHT22;16349;53.672;10.014;2022-12-18T08:26:21;-5.40;99.90
29363;DHT22;16349;53.672;10.014;2022-12-18T08:28:50;-5.40;99.90
29363;DHT22;16349;53.672;10.014;2022-12-18T08:31:18;-5.30;99.90
29363;DHT22;16349;53.672;10.014;2022-12-18T08:33:48;-5.20;99.90
29363;DHT22;16349;53.672;10.014;2022-12-18T08:36:15;-5.20;99.90
29363;DHT22;16349;53.672;10.014;2022-12-18T08:38:42;-5.20;99.90
29363;DHT22;16349;53.672;10.014;2022-12-18T08:41:11;-5.10;99.90
29363;DHT22;16349;53.672;10.014;2022-12-18T08:43:39;-5.10;99.90
29363;DHT22;16349;53.672;10.014;2022-12-18T08:46:26;-5.00;99.90
29363;DHT22;16349;53.672;10.014;2022-12-18T08:48:54;-5.00;99.90
29363;DHT22;16349;53.672;10.014;2022-12-18T08:51:22;-4.90;99.90
29363;DHT22;16349;53.672;10.014;2022-12-18T08:53:48;-4.80;99.90
29363;DHT22;16349;53.672;10.014;2022-12-18T08:56:15;-4.70;99.90
29363;DHT22;16349;53.672;10.014;2022-12-18T08:58:42;-4.60;99.90
29363;DHT22;16349;53.672;10.014;2022-12-18T09:01:11;-4.60;99.90
29363;DHT22;16349;53.672;10.014;2022-12-18T09:03:39;-4.60;99.90
29363;DHT22;16349;53.672;10.014;2022-12-18T09:06:06;-4.50;99.90
29363;DHT22;16349;53.672;10.014;2022-12-18T09:08:36;-4.50;99.90
29363;DHT22;16349;53.672;10.014;2022-12-18T09:11:03;-4.50;99.90
29363;DHT22;16349;53.672;10.014;2022-12-18T09:13:30;-4.40;99.90
29363;DHT22;16349;53.672;10.014;2022-12-18T09:15:56;-4.40;99.90
29363;DHT22;16349;53.672;10.014;2022-12-18T09:18:23;-4.30;99.90
29363;DHT22;16349;53.672;10.014;2022-12-18T09:20:52;-4.30;99.90
29363;DHT22;16349;53.672;10.014;2022-12-18T09:23:19;-4.20;99.90
29363;DHT22;16349;53.672;10.014;2022-12-18T09:25:46;-4.20;99.90
29363;DHT22;16349;53.672;10.014;2022-12-18T09:28:17;-4.10;99.90
29363;DHT22;16349;53.672;10.014;2022-12-18T09:30:46;-4.00;99.90
29363;DHT22;16349;53.672;10.014;2022-12-18T09:33:14;-4.00;99.90
29363;DHT22;16349;53.672;10.014;2022-12-18T09:35:42;-3.90;99.90
29363;DHT22;16349;53.672;10.014;2022-12-18T09:38:12;-3.80;99.90
29363;DHT22;16349;53.672;10.014;2022-12-18T09:40:44;-3.80;99.90
29363;DHT22;16349;53.672;10.014;2022-12-18T09:43:18;-3.70;99.90
29363;DHT22;16349;53.672;10.014;2022-12-18T09:45:49;-3.60;99.90
29363;DHT22;16349;53.672;10.014;2022-12-18T09:48:21;-3.60;99.90
29363;DHT22;16349;53.672;10.014;2022-12-18T09:50:50;-3.50;99.90
29363;DHT22;16349;53.672;10.014;2022-12-18T09:53:22;-3.50;99.90
29363;DHT22;16349;53.672;10.014;2022-12-18T09:55:52;-3.40;99.90
29363;DHT22;16349;53.672;10.014;2022-12-18T09:58:26;-3.40;99.90
29363;DHT22;16349;53.672;10.014;2022-12-18T10:00:55;-3.30;99.90
29363;DHT22;16349;53.672;10.014;2022-12-18T10:03:23;-3.10;99.90
29363;DHT22;16349;53.672;10.014;2022-12-18T10:05:56;-2.90;99.90
29363;DHT22;16349;53.672;10.014;2022-12-18T10:08:35;-2.80;99.90
29363;DHT22;16349;53.672;10.014;2022-12-18T10:11:29;-2.70;99.90
29363;DHT22;16349;53.672;10.014;2022-12-18T10:14:01;-2.70;99.90
29363;DHT22;16349;53.672;10.014;2022-12-18T10:16:36;-2.70;99.90
29363;DHT22;16349;53.672;10.014;2022-12-18T10:19:15;-2.70;99.90
29363;DHT22;16349;53.672;10.014;2022-12-18T10:21:50;-2.70;99.90
29363;DHT22;16349;53.672;10.014;2022-12-18T10:24:24;-2.70;99.90
29363;DHT22;16349;53.672;10.014;2022-12-18T10:26:55;-2.70;99.90
29363;DHT22;16349;53.672;10.014;2022-12-18T10:29:26;-2.70;99.90
29363;DHT22;16349;53.672;10.014;2022-12-18T10:31:53;-2.60;99.90
29363;DHT22;16349;53.672;10.014;2022-12-18T10:34:20;-2.70;99.90
29363;DHT22;16349;53.672;10.014;2022-12-18T10:36:47;-2.60;99.90
29363;DHT22;16349;53.672;10.014;2022-12-18T10:39:17;-2.40;99.90
29363;DHT22;16349;53.672;10.014;2022-12-18T10:41:46;-2.30;99.90
29363;DHT22;16349;53.672;10.014;2022-12-18T10:44:20;-2.40;99.90
29363;DHT22;16349;53.672;10.014;2022-12-18T10:46:49;-2.40;99.90
29363;DHT22;16349;53.672;10.014;2022-12-18T10:49:23;-2.30;99.90
29363;DHT22;16349;53.672;10.014;2022-12-18T10:52:05;-2.30;99.90
29363;DHT22;16349;53.672;10.014;2022-12-18T10:54:34;-2.20;99.90
29363;DHT22;16349;53.672;10.014;2022-12-18T10:57:16;-2.20;99.90
29363;DHT22;16349;53.672;10.014;2022-12-18T10:59:50;-2.20;99.90
29363;DHT22;16349;53.672;10.014;2022-12-18T11:02:26;-2.10;99.90
29363;DHT22;16349;53.672;10.014;2022-12-18T11:04:54;-2.10;99.90
29363;DHT22;16349;53.672;10.014;2022-12-18T11:07:20;-2.10;99.90
29363;DHT22;16349;53.672;10.014;2022-12-18T11:10:02;-2.00;99.90
29363;DHT22;16349;53.672;10.014;2022-12-18T11:12:30;-1.90;99.90
29363;DHT22;16349;53.672;10.014;2022-12-18T11:14:58;-1.90;99.90
29363;DHT22;16349;53.672;10.014;2022-12-18T11:17:28;-1.90;99.90
29363;DHT22;16349;53.672;10.014;2022-12-18T11:19:57;-1.80;99.90
29363;DHT22;16349;53.672;10.014;2022-12-18T11:22:25;-1.80;99.90
29363;DHT22;16349;53.672;10.014;2022-12-18T11:24:56;-1.80;99.90
29363;DHT22;16349;53.672;10.014;2022-12-18T11:27:25;-1.70;99.90
29363;DHT22;16349;53.672;10.014;2022-12-18T11:30:07;-1.70;99.90
29363;DHT22;16349;53.672;10.014;2022-12-18T11:32:37;-1.80;99.90
29363;DHT22;16349;53.672;10.014;2022-12-18T11:35:16;-1.70;99.90
29363;DHT22;16349;53.672;10.014;2022-12-18T11:37:48;-1.70;99.90
29363;DHT22;16349;53.672;10.014;2022-12-18T11:40:18;-1.70;99.90
29363;DHT22;16349;53.672;10.014;2022-12-18T11:42:51;-1.70;99.90
29363;DHT22;16349;53.672;10.014;2022-12-18T11:45:27;-1.60;99.90
29363;DHT22;16349;53.672;10.014;2022-12-18T11:47:58;-1.60;99.90
29363;DHT22;16349;53.672;10.014;2022-12-18T11:50:31;-1.60;99.90
29363;DHT22;16349;53.672;10.014;2022-12-18T11:53:00;-1.60;99.90
29363;DHT22;16349;53.672;10.014;2022-12-18T11:55:32;-1.60;99.90
29363;DHT22;16349;53.672;10.014;2022-12-18T11:58:07;-1.60;99.90
29363;DHT22;16349;53.672;10.014;2022-12-18T12:00:42;-1.60;99.90
29363;DHT22;16349;53.672;10.014;2022-12-18T12:03:24;-1.60;99.90
29363;DHT22;16349;53.672;10.014;2022-12-18T12:06:10;-1.60;99.90
29363;DHT22;16349;53.672;10.014;2022-12-18T12:08:53;-1.50;99.90
29363;DHT22;16349;53.672;10.014;2022-12-18T12:11:31;-1.50;99.90
29363;DHT22;16349;53.672;10.014;2022-12-18T12:14:15;-1.60;99.90
29363;DHT22;16349;53.672;10.014;2022-12-18T12:16:52;-1.60;99.90
29363;DHT22;16349;53.672;10.014;2022-12-18T12:19:33;-1.50;99.90
29363;DHT22;16349;53.672;10.014;2022-12-18T12:22:08;-1.50;99.90
29363;DHT22;16349;53.672;10.014;2022-12-18T12:24:47;-1.50;99.90
29363;DHT22;16349;53.672;10.014;2022-12-18T12:27:20;-1.50;99.90
29363;DHT22;16349;53.672;10.014;2022-12-18T12:30:02;-1.50;99.90
29363;DHT22;16349;53.672;10.014;2022-12-18T12:32:42;-1.50;99.90
29363;DHT22;16349;53.672;10.014;2022-12-18T12:35:22;-1.50;99.90
29363;DHT22;16349;53.672;10.014;2022-12-18T12:38:01;-1.50;99.90
29363;DHT22;16349;53.672;10.014;2022-12-18T12:40:35;-1.50;99.90
29363;DHT22;16349;53.672;10.014;2022-12-18T12:43:12;-1.50;99.90
29363;DHT22;16349;53.672;10.014;2022-12-18T12:45:46;-1.50;99.90
29363;DHT22;16349;53.672;10.014;2022-12-18T12:48:24;-1.40;99.90
29363;DHT22;16349;53.672;10.014;2022-12-18T12:50:54;-1.40;99.90
29363;DHT22;16349;53.672;10.014;2022-12-18T12:53:26;-1.40;99.90
29363;DHT22;16349;53.672;10.014;2022-12-18T12:55:54;-1.30;99.90
29363;DHT22;16349;53.672;10.014;2022-12-18T12:58:28;-1.20;99.90
29363;DHT22;16349;53.672;10.014;2022-12-18T13:01:05;-1.20;99.90
29363;DHT22;16349;53.672;10.014;2022-12-18T13:03:43;-1.20;99.90
29363;DHT22;16349;53.672;10.014;2022-12-18T13:06:19;-1.20;99.90
29363;DHT22;16349;53.672;10.014;2022-12-18T13:08:56;-1.10;99.90
29363;DHT22;16349;53.672;10.014;2022-12-18T13:11:35;-1.10;99.90
29363;DHT22;16349;53.672;10.014;2022-12-18T13:14:26;-1.10;99.90
29363;DHT22;16349;53.672;10.014;2022-12-18T13:17:15;-1.10;99.90
29363;DHT22;16349;53.672;10.014;2022-12-18T13:19:43;-1.10;99.90
29363;DHT22;16349;53.672;10.014;2022-12-18T13:22:22;-1.10;99.90
29363;DHT22;16349;53.672;10.014;2022-12-18T13:24:49;-1.00;99.90
29363;DHT22;16349;53.672;10.014;2022-12-18T13:27:45;-1.00;99.90
29363;DHT22;16349;53.672;10.014;2022-12-18T13:30:41;-1.00;99.90
29363;DHT22;16349;53.672;10.014;2022-12-18T13:36:32;-1.00;99.90
29363;DHT22;16349;53.672;10.014;2022-12-18T13:42:38;-1.20;99.90
29363;DHT22;16349;53.672;10.014;2022-12-18T13:45:39;-1.20;99.90
29363;DHT22;16349;53.672;10.014;2022-12-18T13:48:22;-1.30;99.90
29363;DHT22;16349;53.672;10.014;2022-12-18T13:50:53;-1.40;99.90
29363;DHT22;16349;53.672;10.014;2022-12-18T13:53:26;-1.40;99.90
29363;DHT22;16349;53.672;10.014;2022-12-18T13:55:53;-1.50;99.90
29363;DHT22;16349;53.672;10.014;2022-12-18T13:58:42;-1.50;99.90
29363;DHT22;16349;53.672;10.014;2022-12-18T14:01:21;-1.50;99.90
29363;DHT22;16349;53.672;10.014;2022-12-18T14:04:05;-1.60;99.90
29363;DHT22;16349;53.672;10.014;2022-12-18T14:06:36;-1.60;99.90
29363;DHT22;16349;53.672;10.014;2022-12-18T14:09:04;-1.60;99.90
29363;DHT22;16349;53.672;10.014;2022-12-18T14:11:31;-1.70;99.90
29363;DHT22;16349;53.672;10.014;2022-12-18T14:13:58;-1.70;99.90
29363;DHT22;16349;53.672;10.014;2022-12-18T14:16:25;-1.70;99.90
29363;DHT22;16349;53.672;10.014;2022-12-18T14:18:57;-1.80;99.90
29363;DHT22;16349;53.672;10.014;2022-12-18T14:21:26;-1.80;99.90
29363;DHT22;16349;53.672;10.014;2022-12-18T14:24:06;-1.80;99.90
29363;DHT22;16349;53.672;10.014;2022-12-18T14:26:38;-1.80;99.90
29363;DHT22;16349;53.672;10.014;2022-12-18T14:29:22;-1.90;99.90
29363;DHT22;16349;53.672;10.014;2022-12-18T14:32:13;-1.90;99.90
29363;DHT22;16349;53.672;10.014;2022-12-18T14:34:43;-1.90;99.90
29363;DHT22;16349;53.672;10.014;2022-12-18T14:37:10;-2.00;99.90
29363;DHT22;16349;53.672;10.014;2022-12-18T14:39:39;-2.00;99.90
29363;DHT22;16349;53.672;10.014;2022-12-18T14:42:09;-2.00;99.90
29363;DHT22;16349;53.672;10.014;2022-12-18T14:44:37;-1.90;99.90
29363;DHT22;16349;53.672;10.014;2022-12-18T14:47:03;-1.80;99.90
29363;DHT22;16349;53.672;10.014;2022-12-18T14:49:31;-1.90;99.90
29363;DHT22;16349;53.672;10.014;2022-12-18T14:52:03;-2.00;99.90
29363;DHT22;16349;53.672;10.014;2022-12-18T14:54:32;-2.10;99.90
29363;DHT22;16349;53.672;10.014;2022-12-18T14:57:03;-2.10;99.90
29363;DHT22;16349;53.672;10.014;2022-12-18T14:59:31;-2.20;99.90
29363;DHT22;16349;53.672;10.014;2022-12-18T15:02:02;-2.20;99.90
29363;DHT22;16349;53.672;10.014;2022-12-18T15:04:32;-2.30;99.90
29363;DHT22;16349;53.672;10.014;2022-12-18T15:07:09;-2.30;99.90
29363;DHT22;16349;53.672;10.014;2022-12-18T15:09:38;-2.30;99.90
29363;DHT22;16349;53.672;10.014;2022-12-18T15:12:28;-2.40;99.90
29363;DHT22;16349;53.672;10.014;2022-12-18T15:14:59;-2.40;99.90
29363;DHT22;16349;53.672;10.014;2022-12-18T15:17:26;-2.40;99.90
29363;DHT22;16349;53.672;10.014;2022-12-18T15:19:59;-2.50;99.90
29363;DHT22;16349;53.672;10.014;2022-12-18T15:22:28;-2.50;99.90
29363;DHT22;16349;53.672;10.014;2022-12-18T15:24:57;-2.50;99.90
29363;DHT22;16349;53.672;10.014;2022-12-18T15:27:31;-2.50;99.90
29363;DHT22;16349;53.672;10.014;2022-12-18T15:30:15;-2.50;99.90
29363;DHT22;16349;53.672;10.014;2022-12-18T15:33:27;-2.60;99.90
29363;DHT22;16349;53.672;10.014;2022-12-18T15:35:57;-2.60;99.90
29363;DHT22;16349;53.672;10.014;2022-12-18T15:38:24;-2.60;99.90
29363;DHT22;16349;53.672;10.014;2022-12-18T15:40:52;-2.70;99.90
29363;DHT22;16349;53.672;10.014;2022-12-18T15:43:21;-2.60;99.90
29363;DHT22;16349;53.672;10.014;2022-12-18T15:46:02;-2.60;99.90
29363;DHT22;16349;53.672;10.014;2022-12-18T15:48:29;-2.60;99.90